createdAt,value
2018-08-19T00:02:10.402Z,20.02
2018-08-19T00:04:39.634Z,20.06
2018-08-19T00:07:08.690Z,19.90
2018-08-19T00:09:37.752Z,19.97
2018-08-19T00:12:07.295Z,19.84
2018-08-19T00:14:36.910Z,19.76
2018-08-19T00:17:06.195Z,19.74
2018-08-19T00:19:35.923Z,19.68
2018-08-19T00:22:05.004Z,19.72
2018-08-19T00:24:34.044Z,19.69
2018-08-19T00:27:03.261Z,19.66
2018-08-19T00:29:37.010Z,19.59
2018-08-19T00:32:06.654Z,19.54
2018-08-19T00:34:36.142Z,19.51
2018-08-19T00:37:06.327Z,19.44
2018-08-19T00:39:35.904Z,19.42
2018-08-19T00:42:06.372Z,19.42
2018-08-19T00:44:35.678Z,19.38
2018-08-19T00:47:05.051Z,19.35
2018-08-19T00:49:34.098Z,19.33
2018-08-19T00:52:03.629Z,19.36
2018-08-19T00:54:33.318Z,19.33
2018-08-19T00:57:03.597Z,19.32
2018-08-19T00:59:33.288Z,19.30
2018-08-19T01:02:02.607Z,19.31
2018-08-19T01:04:31.688Z,19.37
2018-08-19T01:07:01.795Z,19.35
2018-08-19T01:09:32.135Z,19.33
2018-08-19T01:12:01.347Z,19.30
2018-08-19T01:14:30.278Z,19.23
2018-08-19T01:16:59.403Z,19.17
2018-08-19T01:19:29.072Z,19.11
2018-08-19T01:21:58.159Z,19.07
2018-08-19T01:24:27.458Z,19.04
2018-08-19T01:26:56.455Z,19.05
2018-08-19T01:29:34.722Z,19.06
2018-08-19T01:32:09.887Z,19.02
2018-08-19T01:34:39.607Z,18.97
2018-08-19T01:37:09.222Z,18.93
2018-08-19T01:39:38.612Z,18.92
2018-08-19T01:42:08.349Z,18.96
2018-08-19T01:44:37.250Z,18.98
2018-08-19T01:47:06.149Z,19.09
2018-08-19T01:49:35.615Z,19.02
2018-08-19T01:52:05.675Z,18.95
2018-08-19T01:54:34.763Z,18.95
2018-08-19T01:57:03.899Z,18.86
2018-08-19T01:59:34.319Z,18.80
2018-08-19T02:02:04.627Z,18.65
2018-08-19T02:04:35.427Z,18.49
2018-08-19T02:07:04.439Z,18.59
2018-08-19T02:09:34.166Z,18.56
2018-08-19T02:12:03.269Z,18.54
2018-08-19T02:14:32.247Z,18.47
2018-08-19T02:17:02.217Z,18.35
2018-08-19T02:19:31.330Z,18.44
2018-08-19T02:22:00.428Z,18.56
2018-08-19T02:24:29.939Z,18.59
2018-08-19T02:26:59.035Z,18.59
2018-08-19T02:29:35.111Z,18.62
2018-08-19T02:32:05.479Z,18.67
2018-08-19T02:34:36.359Z,18.64
2018-08-19T02:37:10.751Z,18.57
2018-08-19T02:39:41.726Z,18.48
2018-08-19T02:42:26.229Z,18.46
2018-08-19T02:45:01.670Z,18.39
2018-08-19T02:47:31.263Z,18.35
2018-08-19T02:50:00.244Z,18.28
2018-08-19T02:52:31.645Z,18.27
2018-08-19T02:55:02.079Z,18.23
2018-08-19T02:57:31.908Z,18.23
2018-08-19T03:00:01.730Z,18.22
2018-08-19T03:02:34.446Z,18.21
2018-08-19T03:05:05.930Z,18.21
2018-08-19T03:07:37.068Z,18.33
2018-08-19T03:10:09.139Z,18.41
2018-08-19T03:12:38.542Z,18.45
2018-08-19T03:15:10.716Z,18.45
2018-08-19T03:17:40.519Z,18.36
2018-08-19T03:20:11.776Z,18.30
2018-08-19T03:22:40.830Z,18.31
2018-08-19T03:25:10.387Z,18.25
2018-08-19T03:27:40.407Z,18.24
2018-08-19T03:30:14.302Z,18.29
2018-08-19T03:32:49.160Z,18.22
2018-08-19T03:35:19.430Z,18.28
2018-08-19T03:37:51.277Z,18.32
2018-08-19T03:40:20.404Z,18.30
2018-08-19T03:42:49.456Z,18.27
2018-08-19T03:45:20.323Z,18.22
2018-08-19T03:47:50.527Z,18.31
2018-08-19T03:50:22.822Z,18.32
2018-08-19T03:52:53.292Z,18.47
2018-08-19T03:55:30.450Z,18.63
2018-08-19T03:58:04.578Z,18.92
2018-08-19T04:00:35.307Z,19.27
2018-08-19T04:03:13.443Z,19.74
2018-08-19T04:05:46.437Z,20.25
2018-08-19T04:08:16.034Z,20.75
2018-08-19T04:10:46.186Z,21.25
2018-08-19T04:13:36.111Z,21.72
2018-08-19T04:16:05.927Z,22.19
2018-08-19T04:18:39.271Z,22.66
2018-08-19T04:21:09.628Z,23.03
2018-08-19T04:23:41.377Z,23.62
2018-08-19T04:26:10.306Z,24.11
2018-08-19T04:28:40.538Z,24.50
2018-08-19T04:31:15.020Z,25.12
2018-08-19T04:33:45.556Z,25.62
2018-08-19T04:36:16.396Z,26.05
2018-08-19T04:38:45.652Z,25.99
2018-08-19T04:41:14.835Z,25.97
2018-08-19T04:43:44.866Z,26.51
2018-08-19T04:46:13.984Z,27.09
2018-08-19T04:48:45.057Z,27.44
2018-08-19T04:51:14.409Z,27.73
2018-08-19T04:53:43.666Z,28.33
2018-08-19T04:56:13.071Z,29.23
2018-08-19T04:58:42.206Z,29.60
2018-08-19T05:01:12.804Z,29.29
2018-08-19T05:03:45.166Z,29.75
2018-08-19T05:06:14.124Z,30.12
2018-08-19T05:08:43.758Z,30.67
2018-08-19T05:11:12.983Z,31.11
2018-08-19T05:13:42.578Z,31.19
2018-08-19T05:16:12.030Z,31.34
2018-08-19T05:18:44.703Z,31.66
2018-08-19T05:21:14.410Z,32.05
2018-08-19T05:23:43.271Z,32.49
2018-08-19T05:26:13.427Z,32.35
2018-08-19T05:28:45.457Z,31.80
2018-08-19T05:31:14.652Z,31.71
2018-08-19T05:33:44.056Z,32.11
2018-08-19T05:36:13.685Z,31.96
2018-08-19T05:38:43.836Z,31.67
2018-08-19T05:41:12.785Z,32.09
2018-08-19T05:43:41.562Z,32.85
2018-08-19T05:46:10.623Z,33.00
2018-08-19T05:48:39.551Z,32.86
2018-08-19T05:51:08.854Z,32.47
2018-08-19T05:53:42.010Z,32.24
2018-08-19T05:56:10.827Z,33.18
2018-08-19T05:58:42.059Z,33.43
2018-08-19T06:01:12.426Z,34.06
2018-08-19T06:03:41.265Z,33.90
2018-08-19T06:06:10.121Z,33.33
2018-08-19T06:08:39.083Z,33.49
2018-08-19T06:11:07.843Z,32.74
2018-08-19T06:13:36.712Z,31.85
2018-08-19T06:16:06.339Z,32.20
2018-08-19T06:18:35.893Z,32.44
2018-08-19T06:21:05.586Z,31.68
2018-08-19T06:23:35.017Z,32.17
2018-08-19T06:26:03.954Z,32.83
2018-08-19T06:28:33.540Z,33.16
2018-08-19T06:31:03.031Z,32.83
2018-08-19T06:33:32.469Z,33.65
2018-08-19T06:36:01.455Z,33.64
2018-08-19T06:38:30.855Z,34.16
2018-08-19T06:40:59.902Z,34.51
2018-08-19T06:43:28.732Z,34.50
2018-08-19T06:45:57.519Z,34.32
2018-08-19T06:48:27.139Z,34.95
2018-08-19T06:50:56.180Z,35.70
2018-08-19T06:53:30.646Z,35.61
2018-08-19T06:56:00.291Z,34.52
2018-08-19T06:58:29.485Z,34.29
2018-08-19T07:00:58.223Z,34.41
2018-08-19T07:03:27.394Z,34.24
2018-08-19T07:06:11.829Z,34.82
2018-08-19T07:08:41.498Z,34.32
2018-08-19T07:11:10.415Z,35.01
2018-08-19T07:13:39.935Z,35.74
2018-08-19T07:16:09.118Z,36.28
2018-08-19T07:18:37.944Z,36.26
2018-08-19T07:21:07.007Z,35.57
2018-08-19T07:23:36.195Z,35.92
2018-08-19T07:26:05.284Z,35.99
2018-08-19T07:28:34.416Z,36.38
2018-08-19T07:31:03.085Z,35.82
2018-08-19T07:33:32.275Z,35.59
2018-08-19T07:36:01.106Z,35.79
2018-08-19T07:38:30.255Z,35.74
2018-08-19T07:40:59.284Z,35.24
2018-08-19T07:43:28.690Z,35.07
2018-08-19T07:45:57.559Z,35.62
2018-08-19T07:48:27.277Z,34.75
2018-08-19T07:50:56.412Z,34.33
2018-08-19T07:53:25.293Z,34.24
2018-08-19T07:55:54.455Z,35.07
2018-08-19T07:58:34.424Z,33.63
2018-08-19T08:01:03.302Z,33.82
2018-08-19T08:03:32.208Z,33.06
2018-08-19T08:06:01.519Z,33.04
2018-08-19T08:08:31.121Z,33.45
2018-08-19T08:11:00.036Z,34.11
2018-08-19T08:13:29.240Z,34.96
2018-08-19T08:15:58.805Z,35.00
2018-08-19T08:18:27.803Z,35.68
2018-08-19T08:21:02.132Z,35.08
2018-08-19T08:23:31.122Z,33.93
2018-08-19T08:25:59.868Z,34.50
2018-08-19T08:28:29.191Z,34.47
2018-08-19T08:30:58.188Z,33.94
2018-08-19T08:33:27.188Z,33.41
2018-08-19T08:35:57.134Z,33.86
2018-08-19T08:38:25.982Z,34.80
2018-08-19T08:40:55.189Z,35.07
2018-08-19T08:43:24.443Z,33.58
2018-08-19T08:45:55.763Z,32.55
2018-08-19T08:48:25.585Z,33.17
2018-08-19T08:50:54.451Z,32.39
2018-08-19T08:53:26.755Z,32.52
2018-08-19T08:55:55.831Z,32.32
2018-08-19T08:58:24.825Z,31.98
2018-08-19T09:00:54.083Z,32.98
2018-08-19T09:03:23.403Z,32.62
2018-08-19T09:05:52.304Z,32.35
2018-08-19T09:08:21.215Z,32.21
2018-08-19T09:10:50.010Z,32.22
2018-08-19T09:13:19.100Z,31.96
2018-08-19T09:15:48.558Z,31.91
2018-08-19T09:18:17.559Z,31.48
2018-08-19T09:20:46.716Z,31.82
2018-08-19T09:23:16.685Z,31.26
2018-08-19T09:25:45.752Z,31.05
2018-08-19T09:28:14.811Z,30.51
2018-08-19T09:30:44.836Z,30.87
2018-08-19T09:33:14.364Z,30.85
2018-08-19T09:35:43.959Z,30.41
2018-08-19T09:38:19.307Z,30.49
2018-08-19T09:40:48.386Z,30.93
2018-08-19T09:43:17.887Z,31.41
2018-08-19T09:45:47.310Z,30.50
2018-08-19T09:48:16.628Z,30.75
2018-08-19T09:50:45.819Z,30.75
2018-08-19T09:53:15.257Z,30.20
2018-08-19T09:55:45.423Z,30.08
2018-08-19T09:58:20.811Z,30.56
2018-08-19T10:00:55.185Z,31.19
2018-08-19T10:03:24.271Z,30.50
2018-08-19T10:05:53.631Z,30.53
2018-08-19T10:08:23.278Z,30.03
2018-08-19T10:10:52.762Z,29.93
2018-08-19T10:13:21.758Z,30.39
2018-08-19T10:15:50.687Z,30.46
2018-08-19T10:18:19.715Z,30.07
2018-08-19T10:20:48.678Z,30.27
2018-08-19T10:23:17.547Z,30.28
2018-08-19T10:25:46.890Z,30.18
2018-08-19T10:28:18.664Z,30.34
2018-08-19T10:30:55.774Z,30.02
2018-08-19T10:33:24.598Z,29.90
2018-08-19T10:35:53.339Z,29.99
2018-08-19T10:38:22.220Z,30.03
2018-08-19T10:40:56.394Z,30.53
2018-08-19T10:43:26.101Z,30.44
2018-08-19T10:45:55.687Z,29.89
2018-08-19T10:48:24.931Z,30.28
2018-08-19T10:50:53.851Z,30.34
2018-08-19T10:53:28.382Z,30.34
2018-08-19T10:56:01.060Z,30.07
2018-08-19T10:58:30.035Z,30.47
2018-08-19T11:00:59.417Z,30.54
2018-08-19T11:03:29.108Z,30.29
2018-08-19T11:05:58.018Z,30.88
2018-08-19T11:08:26.987Z,31.40
2018-08-19T11:10:56.969Z,30.93
2018-08-19T11:13:26.375Z,30.70
2018-08-19T11:15:57.407Z,30.35
2018-08-19T11:18:29.286Z,30.62
2018-08-19T11:21:02.285Z,30.52
2018-08-19T11:23:31.048Z,30.68
2018-08-19T11:26:00.037Z,30.77
2018-08-19T11:28:40.107Z,31.31
2018-08-19T11:31:16.452Z,30.64
2018-08-19T11:33:46.414Z,30.11
2018-08-19T11:36:16.090Z,30.68
2018-08-19T11:38:48.684Z,31.25
2018-08-19T11:41:17.715Z,31.58
2018-08-19T11:43:48.289Z,31.28
2018-08-19T11:46:17.164Z,31.76
2018-08-19T11:48:46.479Z,31.33
2018-08-19T11:51:15.620Z,31.20
2018-08-19T11:53:44.695Z,30.50
2018-08-19T11:56:13.772Z,30.56
2018-08-19T11:58:47.098Z,30.44
2018-08-19T12:01:18.036Z,29.98
2018-08-19T12:04:12.390Z,29.50
2018-08-19T12:06:41.581Z,29.32
2018-08-19T12:09:11.363Z,29.08
2018-08-19T12:11:41.948Z,28.90
2018-08-19T12:14:13.466Z,28.92
2018-08-19T12:16:49.912Z,28.89
2018-08-19T12:19:20.601Z,29.13
2018-08-19T12:21:58.599Z,29.18
2018-08-19T12:24:33.604Z,29.23
2018-08-19T12:27:04.791Z,29.59
2018-08-19T12:29:34.762Z,29.99
2018-08-19T12:32:37.683Z,30.29
2018-08-19T12:35:06.668Z,30.28
2018-08-19T12:37:35.799Z,30.25
2018-08-19T12:40:05.813Z,30.06
2018-08-19T12:42:44.458Z,29.84
2018-08-19T12:45:13.716Z,29.58
2018-08-19T12:47:42.875Z,29.48
2018-08-19T12:50:16.079Z,29.31
2018-08-19T12:52:45.101Z,29.42
2018-08-19T12:55:16.634Z,29.30
2018-08-19T12:57:46.228Z,29.44
2018-08-19T13:00:31.725Z,29.57
2018-08-19T13:03:01.693Z,28.74
2018-08-19T13:05:30.527Z,28.67
2018-08-19T13:08:00.354Z,28.06
2018-08-19T13:10:36.918Z,27.73
2018-08-19T13:13:06.930Z,26.99
2018-08-19T13:15:35.922Z,26.95
2018-08-19T13:18:04.957Z,26.82
2018-08-19T13:20:34.125Z,26.76
2018-08-19T13:23:04.489Z,26.58
2018-08-19T13:25:34.462Z,26.47
2018-08-19T13:28:03.358Z,26.61
2018-08-19T13:30:32.218Z,26.32
2018-08-19T13:33:01.499Z,25.57
2018-08-19T13:35:31.050Z,24.76
2018-08-19T13:37:59.946Z,24.12
2018-08-19T13:40:29.103Z,23.95
2018-08-19T13:42:58.222Z,23.86
2018-08-19T13:45:27.442Z,23.94
2018-08-19T13:47:57.578Z,24.14
2018-08-19T13:50:26.576Z,24.38
2018-08-19T13:52:55.566Z,24.58
2018-08-19T13:55:24.265Z,24.84
2018-08-19T13:57:53.415Z,24.99
2018-08-19T14:00:23.966Z,25.15
2018-08-19T14:02:53.123Z,25.30
2018-08-19T14:05:22.394Z,25.45
2018-08-19T14:07:52.613Z,25.56
2018-08-19T14:10:21.539Z,25.72
2018-08-19T14:12:51.208Z,25.91
2018-08-19T14:15:20.304Z,26.07
2018-08-19T14:17:50.042Z,26.19
2018-08-19T14:20:19.115Z,26.32
2018-08-19T14:22:48.387Z,26.36
2018-08-19T14:25:17.418Z,26.37
2018-08-19T14:27:47.114Z,26.45
2018-08-19T14:30:16.123Z,26.55
2018-08-19T14:32:46.846Z,26.62
2018-08-19T14:35:16.787Z,26.65
2018-08-19T14:37:45.474Z,26.79
2018-08-19T14:40:16.777Z,26.88
2018-08-19T14:42:46.393Z,26.88
2018-08-19T14:45:15.530Z,26.89
2018-08-19T14:47:45.209Z,26.87
2018-08-19T14:50:16.208Z,26.93
2018-08-19T14:52:45.299Z,26.96
2018-08-19T14:55:14.251Z,26.93
2018-08-19T14:57:43.131Z,26.91
2018-08-19T15:00:14.106Z,26.95
2018-08-19T15:02:43.294Z,27.07
2018-08-19T15:05:16.287Z,27.04
2018-08-19T15:07:45.826Z,27.01
2018-08-19T15:10:17.976Z,27.15
2018-08-19T15:12:47.950Z,27.32
2018-08-19T15:15:17.058Z,27.43
2018-08-19T15:18:02.092Z,27.36
2018-08-19T15:20:33.136Z,27.41
2018-08-19T15:23:16.827Z,27.34
2018-08-19T15:25:46.231Z,27.36
2018-08-19T15:28:15.694Z,27.31
2018-08-19T15:30:44.635Z,27.35
2018-08-19T15:33:14.710Z,27.34
2018-08-19T15:35:44.034Z,27.26
2018-08-19T15:38:14.271Z,27.23
2018-08-19T15:40:45.005Z,27.28
2018-08-19T15:43:14.376Z,27.32
2018-08-19T15:45:44.523Z,27.33
2018-08-19T15:48:13.597Z,27.24
2018-08-19T15:50:42.610Z,27.22
2018-08-19T15:53:12.112Z,27.17
2018-08-19T15:55:41.112Z,27.20
2018-08-19T15:58:10.383Z,27.04
2018-08-19T16:00:41.180Z,27.09
2018-08-19T16:03:11.167Z,27.11
2018-08-19T16:05:40.057Z,27.09
2018-08-19T16:08:09.302Z,26.99
2018-08-19T16:10:38.163Z,26.93
2018-08-19T16:13:09.253Z,26.93
2018-08-19T16:15:39.398Z,26.84
2018-08-19T16:18:08.762Z,26.84
2018-08-19T16:20:37.890Z,26.86
2018-08-19T16:23:06.957Z,26.87
2018-08-19T16:25:36.088Z,26.96
2018-08-19T16:28:05.831Z,26.96
2018-08-19T16:30:34.742Z,26.80
2018-08-19T16:33:03.667Z,26.73
2018-08-19T16:35:32.706Z,26.67
2018-08-19T16:38:02.143Z,26.62
2018-08-19T16:40:31.320Z,26.65
2018-08-19T16:43:00.218Z,26.61
2018-08-19T16:45:29.757Z,26.51
2018-08-19T16:47:58.906Z,26.56
2018-08-19T16:50:27.874Z,26.46
2018-08-19T16:52:57.114Z,26.45
2018-08-19T16:55:25.848Z,26.41
2018-08-19T16:57:54.981Z,26.37
2018-08-19T17:00:24.207Z,26.28
2018-08-19T17:02:53.320Z,26.24
2018-08-19T17:05:31.567Z,26.14
2018-08-19T17:08:00.763Z,26.11
2018-08-19T17:10:30.243Z,26.03
2018-08-19T17:13:00.254Z,26.06
2018-08-19T17:15:30.064Z,25.91
2018-08-19T17:17:59.723Z,25.89
2018-08-19T17:20:29.730Z,25.86
2018-08-19T17:22:58.557Z,25.71
2018-08-19T17:25:27.866Z,25.64
2018-08-19T17:27:57.147Z,25.57
2018-08-19T17:30:26.141Z,25.53
2018-08-19T17:33:00.577Z,25.52
2018-08-19T17:35:30.218Z,25.48
2018-08-19T17:38:00.303Z,25.37
2018-08-19T17:40:30.623Z,25.31
2018-08-19T17:42:59.852Z,25.25
2018-08-19T17:45:28.751Z,25.20
2018-08-19T17:47:57.754Z,25.16
2018-08-19T17:50:27.919Z,25.11
2018-08-19T17:52:59.172Z,25.08
2018-08-19T17:55:28.268Z,25.03
2018-08-19T17:57:58.590Z,25.00
2018-08-19T18:00:27.780Z,24.99
2018-08-19T18:02:56.686Z,24.99
2018-08-19T18:05:25.536Z,24.96
2018-08-19T18:07:55.496Z,24.94
2018-08-19T18:10:24.907Z,24.95
2018-08-19T18:12:54.097Z,24.93
2018-08-19T18:15:23.428Z,24.92
2018-08-19T18:17:58.463Z,24.90
2018-08-19T18:20:30.436Z,24.84
2018-08-19T18:23:00.430Z,24.87
2018-08-19T18:25:29.591Z,24.85
2018-08-19T18:27:58.723Z,24.82
2018-08-19T18:30:28.545Z,24.82
2018-08-19T18:32:57.327Z,24.75
2018-08-19T18:35:26.622Z,24.71
2018-08-19T18:37:55.566Z,24.67
2018-08-19T18:40:31.315Z,24.61
2018-08-19T18:43:00.923Z,24.52
2018-08-19T18:45:30.147Z,24.41
2018-08-19T18:48:03.838Z,24.34
2018-08-19T18:50:32.937Z,24.32
2018-08-19T18:53:02.166Z,24.22
2018-08-19T18:55:31.123Z,24.18
2018-08-19T18:58:00.787Z,24.16
2018-08-19T19:00:30.099Z,24.07
2018-08-19T19:03:00.666Z,24.05
2018-08-19T19:05:39.751Z,23.98
2018-08-19T19:08:11.444Z,23.84
2018-08-19T19:10:43.944Z,23.92
2018-08-19T19:13:13.375Z,23.94
2018-08-19T19:15:42.391Z,23.99
2018-08-19T19:18:13.398Z,24.05
2018-08-19T19:20:49.584Z,23.98
2018-08-19T19:23:21.914Z,23.94
2018-08-19T19:25:51.804Z,23.96
2018-08-19T19:28:20.854Z,23.98
2018-08-19T19:30:53.893Z,23.94
2018-08-19T19:33:24.294Z,23.93
2018-08-19T19:35:53.102Z,23.93
2018-08-19T19:38:22.631Z,23.92
2018-08-19T19:40:52.052Z,23.81
2018-08-19T19:43:22.731Z,23.74
2018-08-19T19:45:53.782Z,23.70
2018-08-19T19:48:22.970Z,23.70
2018-08-19T19:50:51.970Z,23.68
2018-08-19T19:53:20.998Z,23.61
2018-08-19T19:55:50.462Z,23.54
2018-08-19T19:58:20.515Z,23.45
2018-08-19T20:00:55.144Z,23.38
2018-08-19T20:03:24.832Z,23.31
2018-08-19T20:05:53.919Z,23.30
2018-08-19T20:08:25.928Z,23.14
2018-08-19T20:10:54.770Z,23.07
2018-08-19T20:13:23.671Z,23.04
2018-08-19T20:15:52.759Z,23.03
2018-08-19T20:18:22.586Z,23.00
2018-08-19T20:20:53.299Z,22.92
2018-08-19T20:23:26.048Z,22.89
2018-08-19T20:25:55.967Z,22.84
2018-08-19T20:28:24.974Z,22.79
2018-08-19T20:30:53.693Z,22.78
2018-08-19T20:33:29.583Z,22.73
2018-08-19T20:35:58.555Z,22.73
2018-08-19T20:38:27.446Z,22.70
2018-08-19T20:40:56.909Z,22.71
2018-08-19T20:43:26.851Z,22.76
2018-08-19T20:45:56.266Z,22.83
2018-08-19T20:48:25.178Z,22.83
2018-08-19T20:50:54.052Z,22.85
2018-08-19T20:53:23.131Z,22.97
2018-08-19T20:55:52.167Z,22.96
2018-08-19T20:58:21.974Z,22.92
2018-08-19T21:00:50.727Z,22.92
2018-08-19T21:03:19.869Z,22.92
2018-08-19T21:05:48.822Z,23.01
2018-08-19T21:08:18.957Z,23.10
2018-08-19T21:10:48.664Z,23.14
2018-08-19T21:13:19.444Z,23.17
2018-08-19T21:15:53.427Z,23.10
2018-08-19T21:18:22.802Z,23.08
2018-08-19T21:20:53.438Z,23.08
2018-08-19T21:23:22.371Z,23.08
2018-08-19T21:25:56.296Z,23.04
2018-08-19T21:28:25.245Z,23.00
2018-08-19T21:30:54.525Z,22.97
2018-08-19T21:33:23.719Z,22.96
2018-08-19T21:35:54.743Z,22.93
2018-08-19T21:38:23.681Z,22.98
2018-08-19T21:40:57.102Z,22.96
2018-08-19T21:43:28.207Z,22.97
2018-08-19T21:45:57.821Z,22.84
2018-08-19T21:48:26.727Z,22.64
2018-08-19T21:50:55.926Z,22.49
2018-08-19T21:53:24.724Z,22.38
2018-08-19T21:55:54.182Z,22.25
2018-08-19T21:58:23.289Z,22.16
2018-08-19T22:00:58.898Z,22.09
2018-08-19T22:03:33.122Z,21.99
2018-08-19T22:06:06.383Z,21.91
2018-08-19T22:08:35.353Z,21.81
2018-08-19T22:11:04.439Z,21.74
2018-08-19T22:13:33.502Z,21.66
2018-08-19T22:16:03.065Z,21.57
2018-08-19T22:18:32.474Z,21.49
2018-08-19T22:21:10.964Z,21.33
2018-08-19T22:23:43.370Z,21.19
2018-08-19T22:26:14.620Z,21.05
2018-08-19T22:28:44.523Z,20.94
2018-08-19T22:31:24.575Z,20.84
2018-08-19T22:33:55.589Z,20.72
2018-08-19T22:36:25.290Z,20.64
2018-08-19T22:38:54.878Z,20.64
2018-08-19T22:41:25.254Z,20.72
2018-08-19T22:43:55.657Z,20.73
2018-08-19T22:46:25.018Z,20.71
2018-08-19T22:48:55.138Z,20.69
2018-08-19T22:51:24.665Z,20.63
2018-08-19T22:53:55.660Z,20.55
2018-08-19T22:56:24.365Z,20.43
2018-08-19T22:58:53.499Z,20.46
2018-08-19T23:01:27.137Z,20.46
2018-08-19T23:04:01.646Z,20.44
2018-08-19T23:06:31.382Z,20.36
2018-08-19T23:09:00.883Z,20.30
2018-08-19T23:11:35.787Z,20.34
2018-08-19T23:14:16.167Z,20.37
2018-08-19T23:16:45.221Z,20.32
2018-08-19T23:19:13.866Z,20.24
2018-08-19T23:21:42.771Z,20.23
2018-08-19T23:24:11.906Z,20.23
2018-08-19T23:26:41.075Z,20.21
2018-08-19T23:29:10.154Z,20.19
2018-08-19T23:31:39.116Z,20.17
2018-08-19T23:34:08.228Z,20.12
2018-08-19T23:36:36.926Z,20.05
2018-08-19T23:39:08.015Z,19.89
2018-08-19T23:41:37.183Z,19.83
2018-08-19T23:44:06.291Z,19.88
2018-08-19T23:46:35.307Z,19.90
2018-08-19T23:49:04.399Z,19.92
2018-08-19T23:51:33.683Z,19.84
2018-08-19T23:54:03.887Z,19.83
2018-08-19T23:56:33.182Z,19.75
2018-08-19T23:59:02.582Z,19.74
